Time;durP1;ratioP1;P1;durP2;ratioP2;P2;SDS_P1;SDS_P2;PMS_P1;PMS_P2;Temp;Humidity;BMP_temperature;BMP_pressure;BME280_temperature;BME280_humidity;BME280_pressure;Samples;Min_cycle;Max_cycle;Signal;HPM_P1;HPM_P2
2022/03/19 00:00:19;;;;;;;13.97;3.97;;;9.20;99.90;;;;;;5019649;28;20700;-72
2022/03/19 00:02:45;;;;;;;10.20;3.93;;;9.20;99.90;;;;;;5029463;28;20190;-71
2022/03/19 00:05:11;;;;;;;13.53;4.20;;;9.10;99.90;;;;;;5029618;28;20190;-72
2022/03/19 00:07:40;;;;;;;11.93;4.73;;;9.00;99.90;;;;;;5030282;28;20209;-72
2022/03/19 00:10:08;;;;;;;14.23;4.20;;;9.00;99.90;;;;;;5030030;28;20659;-69
2022/03/19 00:12:40;;;;;;;14.13;4.13;;;9.00;99.90;;;;;;5029929;28;20177;-69
2022/03/19 00:15:07;;;;;;;12.57;4.70;;;8.90;99.90;;;;;;5030128;28;20230;-68
2022/03/19 00:17:33;;;;;;;14.67;4.80;;;9.00;99.90;;;;;;5030318;28;20166;-69
2022/03/19 00:19:59;;;;;;;15.73;4.83;;;8.90;99.90;;;;;;5029807;28;20247;-69
2022/03/19 00:22:25;;;;;;;16.70;4.70;;;8.90;99.90;;;;;;5030059;28;20174;-68
2022/03/19 00:24:50;;;;;;;11.53;4.90;;;8.90;99.90;;;;;;5029926;28;20468;-69
2022/03/19 00:27:16;;;;;;;13.90;5.60;;;8.90;99.90;;;;;;5030004;28;20185;-69
2022/03/19 00:29:42;;;;;;;13.23;5.63;;;8.90;99.90;;;;;;5030076;28;20676;-70
2022/03/19 00:32:08;;;;;;;14.57;5.17;;;8.90;99.90;;;;;;5030074;28;20202;-71
2022/03/19 00:34:34;;;;;;;15.63;5.20;;;9.00;99.90;;;;;;5030224;28;20210;-72
2022/03/19 00:36:59;;;;;;;12.80;5.70;;;9.00;99.90;;;;;;5030194;28;20166;-72
2022/03/19 00:39:25;;;;;;;16.13;5.77;;;8.90;99.90;;;;;;5030738;28;20205;-72
2022/03/19 00:41:54;;;;;;;14.47;5.77;;;8.90;99.90;;;;;;5029681;28;20679;-73
2022/03/19 00:44:21;;;;;;;19.87;6.23;;;8.90;99.90;;;;;;5031370;28;20552;-75
2022/03/19 00:46:47;;;;;;;17.33;6.27;;;8.90;99.90;;;;;;5048751;28;20200;-74
2022/03/19 00:49:13;;;;;;;15.83;6.47;;;8.90;99.90;;;;;;5033619;28;20213;-74
2022/03/19 00:51:39;;;;;;;14.77;6.10;;;8.80;99.90;;;;;;5033481;28;20166;-75
2022/03/19 00:54:09;;;;;;;14.73;5.97;;;8.90;99.90;;;;;;5015494;28;20762;-73
2022/03/19 00:56:36;;;;;;;15.53;5.50;;;8.80;99.90;;;;;;5033478;28;20268;-74
2022/03/19 00:59:01;;;;;;;15.67;6.70;;;8.80;99.90;;;;;;5033359;28;20205;-74
2022/03/19 01:01:27;;;;;;;17.57;6.80;;;8.90;99.90;;;;;;5033305;28;20170;-74
2022/03/19 01:03:54;;;;;;;15.87;6.03;;;8.90;99.90;;;;;;5032532;28;20181;-75
2022/03/19 01:06:20;;;;;;;14.97;6.00;;;8.90;99.90;;;;;;5033410;28;20178;-74
2022/03/19 01:08:45;;;;;;;16.47;5.80;;;8.90;99.90;;;;;;5033207;28;20217;-74
2022/03/19 01:11:11;;;;;;;16.60;6.87;;;8.80;99.90;;;;;;5032954;28;20174;-74
2022/03/19 01:13:37;;;;;;;16.73;6.23;;;8.80;99.90;;;;;;5032855;28;20238;-73
2022/03/19 01:16:03;;;;;;;18.87;6.13;;;8.80;99.90;;;;;;5032962;28;20214;-74
2022/03/19 01:18:29;;;;;;;18.43;5.93;;;8.80;99.90;;;;;;5032772;28;20245;-69
2022/03/19 01:20:56;;;;;;;20.10;6.23;;;8.70;99.90;;;;;;5014994;28;20555;-69
2022/03/19 01:23:21;;;;;;;20.83;6.37;;;8.70;99.90;;;;;;5032346;28;20281;-69
2022/03/19 01:25:47;;;;;;;18.03;6.27;;;8.70;99.90;;;;;;5032864;28;20269;-69
2022/03/19 01:28:13;;;;;;;16.67;6.40;;;8.70;99.90;;;;;;5032439;28;20213;-68
2022/03/19 01:30:39;;;;;;;19.00;5.63;;;8.70;99.90;;;;;;5032902;28;20162;-70
2022/03/19 01:33:04;;;;;;;15.23;5.63;;;8.70;99.90;;;;;;5032848;28;20213;-70
2022/03/19 01:35:30;;;;;;;12.37;5.37;;;8.70;99.90;;;;;;5032175;28;20893;-70
2022/03/19 01:37:56;;;;;;;13.87;6.00;;;8.60;99.90;;;;;;5032319;28;20182;-71
2022/03/19 01:40:22;;;;;;;18.00;5.40;;;8.50;99.90;;;;;;5032692;28;20185;-70
2022/03/19 01:42:50;;;;;;;22.77;6.03;;;8.50;99.90;;;;;;5032678;28;20688;-72
2022/03/19 01:45:21;;;;;;;12.83;5.67;;;8.50;99.90;;;;;;5032293;28;20166;-72
2022/03/19 01:47:50;;;;;;;16.40;5.27;;;8.50;99.90;;;;;;5032181;28;20212;-71
2022/03/19 01:50:19;;;;;;;15.97;6.00;;;8.40;99.90;;;;;;5032262;28;20180;-72
2022/03/19 01:52:45;;;;;;;17.73;5.80;;;8.40;99.90;;;;;;5032271;28;20656;-72
2022/03/19 01:55:12;;;;;;;24.10;6.47;;;8.40;99.90;;;;;;5031679;28;20213;-72
2022/03/19 01:57:43;;;;;;;13.27;5.53;;;8.40;99.90;;;;;;5032134;28;20223;-72
2022/03/19 02:00:12;;;;;;;17.90;6.07;;;8.40;99.90;;;;;;5032335;28;20180;-72
2022/03/19 02:02:38;;;;;;;19.07;5.90;;;8.40;99.90;;;;;;5016243;28;20180;-73
2022/03/19 02:05:05;;;;;;;17.47;5.60;;;8.30;99.90;;;;;;5032098;28;20233;-72
2022/03/19 02:07:33;;;;;;;14.63;5.90;;;8.30;99.90;;;;;;5032272;28;20201;-72
2022/03/19 02:10:00;;;;;;;20.13;6.23;;;8.30;99.90;;;;;;5031990;28;20264;-71
2022/03/19 02:12:27;;;;;;;20.83;6.00;;;8.30;99.90;;;;;;5031988;28;20193;-73
2022/03/19 02:14:52;;;;;;;12.93;5.60;;;8.30;99.90;;;;;;5031711;28;20181;-73
2022/03/19 02:17:18;;;;;;;19.70;5.93;;;8.20;99.90;;;;;;5031728;28;20700;-74
2022/03/19 02:19:49;;;;;;;17.10;5.87;;;8.20;99.90;;;;;;5033466;28;20268;-73
2022/03/19 02:22:22;;;;;;;17.43;5.97;;;8.10;99.90;;;;;;5031724;28;20215;-73
2022/03/19 02:27:34;;;;;;;14.93;6.20;;;8.10;99.90;;;;;;5028170;28;20239;-71
2022/03/19 02:29:59;;;;;;;14.83;6.03;;;8.00;99.90;;;;;;5030750;28;20644;-71
2022/03/19 02:32:26;;;;;;;14.23;6.10;;;8.00;99.90;;;;;;5031182;28;20181;-72
2022/03/19 02:34:53;;;;;;;16.00;6.10;;;8.00;99.90;;;;;;5031790;28;20185;-74
2022/03/19 02:37:18;;;;;;;16.37;6.40;;;7.90;99.90;;;;;;5031167;28;20209;-73
2022/03/19 02:39:44;;;;;;;20.13;6.67;;;7.20;99.90;;;;;;5031302;28;20623;-72
2022/03/19 02:42:10;;;;;;;14.37;6.73;;;7.90;99.90;;;;;;5031361;28;20192;-70
2022/03/19 02:44:36;;;;;;;20.17;7.20;;;7.90;99.90;;;;;;5031246;28;20208;-71
2022/03/19 02:47:05;;;;;;;20.73;6.77;;;7.90;99.90;;;;;;5031484;28;20208;-67
2022/03/19 02:49:31;;;;;;;21.80;6.83;;;7.90;99.90;;;;;;5031310;28;20249;-68
2022/03/19 02:51:57;;;;;;;20.73;7.37;;;8.40;99.90;;;;;;5031237;28;20648;-67
2022/03/19 02:54:26;;;;;;;21.27;6.80;;;7.80;99.90;;;;;;5013269;28;20226;-67
2022/03/19 02:56:53;;;;;;;15.17;6.30;;;7.90;99.90;;;;;;5031211;28;20184;-69
2022/03/19 02:59:20;;;;;;;22.13;8.33;;;7.90;99.90;;;;;;5030878;28;20188;-68
2022/03/19 03:01:55;;;;;;;20.43;7.23;;;7.90;99.90;;;;;;5030847;28;20196;-69
2022/03/19 03:04:21;;;;;;;18.57;6.87;;;7.90;99.90;;;;;;5031145;28;20174;-70
2022/03/19 03:06:49;;;;;;;23.37;7.50;;;7.90;99.90;;;;;;5030644;28;20285;-69
2022/03/19 03:09:19;;;;;;;25.97;7.60;;;7.80;99.90;;;;;;5030915;28;20205;-69
2022/03/19 03:11:44;;;;;;;15.90;7.13;;;7.80;99.90;;;;;;5030049;28;20162;-69
2022/03/19 03:14:10;;;;;;;17.73;7.97;;;7.80;99.90;;;;;;5030756;28;20181;-69
2022/03/19 03:16:37;;;;;;;22.23;7.70;;;7.70;99.90;;;;;;5012529;28;20177;-69
2022/03/19 03:19:05;;;;;;;21.33;7.93;;;7.80;99.90;;;;;;5030761;28;20320;-69
2022/03/19 03:21:32;;;;;;;19.20;8.00;;;7.80;99.90;;;;;;5030225;28;20196;-69
2022/03/19 03:23:59;;;;;;;18.33;8.23;;;7.80;99.90;;;;;;5029683;28;20189;-69
2022/03/19 03:26:25;;;;;;;19.63;8.23;;;7.80;99.90;;;;;;5030563;28;20170;-69
2022/03/19 03:28:51;;;;;;;20.30;8.60;;;7.70;99.90;;;;;;5030730;28;20261;-70
2022/03/19 03:31:17;;;;;;;25.63;9.10;;;7.70;99.90;;;;;;5030862;28;20264;-69
2022/03/19 03:33:43;;;;;;;17.23;8.90;;;7.60;99.90;;;;;;5030841;28;20714;-69
2022/03/19 03:36:09;;;;;;;21.73;9.03;;;7.60;99.90;;;;;;5030567;28;20641;-70
2022/03/19 03:38:35;;;;;;;32.87;10.33;;;7.60;99.90;;;;;;5030786;28;20158;-69
2022/03/19 03:41:00;;;;;;;25.40;9.57;;;7.60;99.90;;;;;;5029821;28;20586;-70
2022/03/19 03:43:26;;;;;;;29.67;9.47;;;7.60;99.90;;;;;;5030623;28;20641;-70
2022/03/19 03:45:52;;;;;;;27.40;10.07;;;7.60;99.90;;;;;;5030498;28;20170;-70
2022/03/19 03:48:18;;;;;;;24.83;9.80;;;7.60;99.90;;;;;;5030394;28;20293;-70
2022/03/19 03:50:44;;;;;;;26.63;9.90;;;7.60;99.90;;;;;;5030521;28;20170;-69
2022/03/19 03:53:10;;;;;;;23.77;10.33;;;7.60;99.90;;;;;;5030388;28;20368;-69
2022/03/19 03:55:37;;;;;;;23.40;9.87;;;7.50;99.90;;;;;;5030260;28;20280;-71
2022/03/19 03:58:04;;;;;;;24.37;9.60;;;7.50;99.90;;;;;;5030712;28;20224;-69
2022/03/19 04:00:31;;;;;;;30.93;10.87;;;7.50;99.90;;;;;;5030273;28;20178;-70
2022/03/19 04:02:58;;;;;;;25.83;10.77;;;7.40;99.90;;;;;;5030681;28;20213;-70
2022/03/19 04:05:23;;;;;;;27.50;10.50;;;7.50;99.90;;;;;;5030511;28;20244;-70
2022/03/19 04:07:49;;;;;;;19.33;10.03;;;7.40;99.90;;;;;;5030472;28;20248;-69
2022/03/19 04:10:15;;;;;;;23.47;10.33;;;7.40;99.90;;;;;;5028832;28;20210;-70
2022/03/19 04:12:41;;;;;;;20.63;10.13;;;7.30;99.90;;;;;;5030434;28;20277;-70
2022/03/19 04:15:07;;;;;;;26.20;11.73;;;7.30;99.90;;;;;;5012522;28;20683;-69
2022/03/19 04:17:34;;;;;;;26.70;10.30;;;7.20;99.90;;;;;;5030010;28;20175;-69
2022/03/19 04:20:00;;;;;;;26.80;12.43;;;7.20;99.90;;;;;;5033712;28;20324;-69
2022/03/19 04:22:40;;;;;;;31.93;11.77;;;7.30;99.90;;;;;;5034137;28;20650;-70
2022/03/19 04:25:26;;;;;;;23.10;11.40;;;7.30;99.90;;;;;;5034006;28;20174;-69
2022/03/19 04:27:53;;;;;;;31.47;11.07;;;7.30;99.90;;;;;;5033556;28;20288;-70
2022/03/19 04:30:22;;;;;;;28.07;13.07;;;7.20;99.90;;;;;;5033954;28;20247;-70
2022/03/19 04:32:51;;;;;;;32.33;13.17;;;7.20;99.90;;;;;;5034065;28;20265;-68
2022/03/19 04:38:08;;;;;;;26.57;12.77;;;7.10;99.90;;;;;;5033563;28;20251;-68
2022/03/19 04:40:34;;;;;;;28.63;14.57;;;7.10;99.90;;;;;;5033610;28;20637;-68
2022/03/19 04:43:00;;;;;;;28.53;13.43;;;7.30;99.90;;;;;;5033807;28;20645;-68
2022/03/19 04:45:26;;;;;;;36.70;14.23;;;7.10;99.90;;;;;;5033573;28;20180;-68
2022/03/19 04:47:53;;;;;;;37.70;13.70;;;7.10;99.90;;;;;;5033611;28;20654;-68
2022/03/19 04:50:19;;;;;;;39.60;14.23;;;7.10;99.90;;;;;;5033721;28;20185;-68
2022/03/19 04:52:45;;;;;;;35.97;14.37;;;7.00;99.90;;;;;;5015716;28;20556;-68
2022/03/19 04:55:11;;;;;;;29.97;14.70;;;7.10;99.90;;;;;;5033483;28;20230;-68
2022/03/19 04:57:38;;;;;;;30.57;14.50;;;7.10;99.90;;;;;;5033410;28;20692;-69
2022/03/19 05:00:06;;;;;;;33.60;15.37;;;7.00;99.90;;;;;;5033421;28;20536;-69
2022/03/19 05:02:32;;;;;;;33.43;15.47;;;6.90;99.90;;;;;;5033267;28;20560;-69
2022/03/19 05:04:58;;;;;;;33.60;15.73;;;7.10;99.90;;;;;;5032479;28;20227;-69
2022/03/19 05:07:27;;;;;;;31.70;15.33;;;7.10;99.90;;;;;;5033377;28;20178;-69
2022/03/19 05:12:40;;;;;;;29.93;15.77;;;7.10;99.90;;;;;;5033329;28;20587;-69
2022/03/19 05:15:10;;;;;;;33.73;15.67;;;7.20;99.90;;;;;;5032747;28;20255;-69
2022/03/19 05:17:36;;;;;;;32.50;17.43;;;7.20;99.90;;;;;;5032941;28;20248;-69
2022/03/19 05:20:02;;;;;;;40.47;16.17;;;7.10;99.90;;;;;;5033039;28;20564;-69
2022/03/19 05:22:29;;;;;;;34.70;16.37;;;7.20;99.90;;;;;;5032880;28;20237;-69
2022/03/19 05:24:58;;;;;;;37.77;15.47;;;7.10;99.90;;;;;;5032689;28;20205;-69
2022/03/19 05:27:25;;;;;;;35.60;16.13;;;7.10;99.90;;;;;;5032934;28;20264;-69
2022/03/19 05:29:52;;;;;;;36.43;16.63;;;7.10;99.90;;;;;;5034211;28;20637;-70
2022/03/19 05:32:19;;;;;;;41.43;16.93;;;7.20;99.90;;;;;;5032592;28;20674;-70
2022/03/19 05:34:44;;;;;;;34.87;16.73;;;7.20;99.90;;;;;;5032848;28;20178;-70
2022/03/19 05:37:11;;;;;;;33.17;16.03;;;7.20;99.90;;;;;;5032514;28;20185;-69
2022/03/19 05:39:37;;;;;;;32.20;16.17;;;7.20;99.90;;;;;;5032570;28;20663;-71
2022/03/19 05:42:04;;;;;;;36.27;17.63;;;7.10;99.90;;;;;;5032428;28;20291;-63
2022/03/19 05:44:30;;;;;;;36.13;16.77;;;7.10;99.90;;;;;;5032628;28;20173;-72
2022/03/19 05:46:59;;;;;;;45.97;17.73;;;7.20;99.90;;;;;;5014422;28;20176;-69
2022/03/19 05:49:26;;;;;;;38.97;16.80;;;7.10;99.90;;;;;;5032278;28;20205;-69
2022/03/19 05:51:52;;;;;;;34.40;17.20;;;7.10;99.90;;;;;;5032091;28;20166;-70
2022/03/19 05:54:18;;;;;;;35.70;17.20;;;7.20;99.90;;;;;;5032016;28;20221;-69
2022/03/19 05:56:44;;;;;;;41.37;16.00;;;7.20;99.90;;;;;;5032196;28;20182;-69
2022/03/19 05:59:10;;;;;;;40.20;17.43;;;7.20;99.90;;;;;;5032111;28;20648;-69
2022/03/19 06:01:35;;;;;;;31.23;17.53;;;7.10;99.90;;;;;;5030856;28;20628;-69
2022/03/19 06:04:01;;;;;;;40.87;18.10;;;7.10;99.90;;;;;;5034316;28;20618;-70
2022/03/19 06:06:28;;;;;;;40.00;17.50;;;7.10;99.90;;;;;;5032063;28;20582;-70
2022/03/19 06:08:54;;;;;;;38.60;17.57;;;7.10;99.90;;;;;;5031563;28;20225;-69
2022/03/19 06:11:20;;;;;;;43.10;17.67;;;7.10;99.90;;;;;;5032147;28;20174;-70
2022/03/19 06:13:45;;;;;;;38.53;17.60;;;7.10;99.90;;;;;;5031870;28;20779;-70
2022/03/19 06:16:11;;;;;;;37.97;16.20;;;7.10;99.90;;;;;;5032871;28;20185;-70
2022/03/19 06:18:38;;;;;;;39.30;15.87;;;7.10;99.90;;;;;;5014024;28;20542;-69
2022/03/19 06:21:04;;;;;;;43.13;18.07;;;7.10;99.90;;;;;;5031627;28;20194;-69
2022/03/19 06:23:30;;;;;;;40.47;17.37;;;7.10;99.90;;;;;;5031524;28;20222;-70
2022/03/19 06:25:56;;;;;;;34.20;16.90;;;7.10;99.90;;;;;;5031606;28;20532;-68
2022/03/19 06:28:22;;;;;;;42.47;17.73;;;7.10;99.90;;;;;;5031420;28;20201;-68
2022/03/19 06:30:48;;;;;;;33.37;16.90;;;7.10;99.90;;;;;;5031761;28;20170;-69
2022/03/19 06:33:14;;;;;;;39.67;17.43;;;7.10;99.90;;;;;;5031680;28;20178;-69
2022/03/19 06:38:26;;;;;;;29.47;16.70;;;7.10;99.90;;;;;;5031927;28;20189;-69
2022/03/19 06:40:52;;;;;;;42.37;17.67;;;7.20;99.90;;;;;;5030634;28;20676;-68
2022/03/19 06:43:18;;;;;;;39.03;17.70;;;7.20;99.90;;;;;;5031416;28;20271;-69
2022/03/19 06:45:44;;;;;;;39.07;17.70;;;7.20;99.90;;;;;;5031096;28;20605;-69
2022/03/19 06:48:09;;;;;;;35.87;17.20;;;7.20;99.90;;;;;;5031128;28;20252;-69
2022/03/19 06:50:35;;;;;;;39.70;17.70;;;7.30;99.90;;;;;;5031027;28;20181;-68
2022/03/19 06:53:05;;;;;;;40.33;17.57;;;7.30;99.90;;;;;;5031281;28;20174;-68
2022/03/19 06:55:31;;;;;;;39.50;19.00;;;7.30;99.90;;;;;;5031027;28;20229;-67
2022/03/19 06:57:56;;;;;;;36.97;17.73;;;7.40;99.90;;;;;;5032843;28;20186;-67
2022/03/19 07:00:22;;;;;;;37.33;16.93;;;7.40;99.90;;;;;;5031022;28;20193;-68
2022/03/19 07:02:50;;;;;;;38.40;18.50;;;7.50;99.90;;;;;;5030945;28;20184;-68
2022/03/19 07:05:23;;;;;;;43.93;18.37;;;7.50;99.90;;;;;;5031130;28;20209;-68
2022/03/19 07:07:50;;;;;;;40.87;17.97;;;7.50;99.90;;;;;;5025298;28;20248;-67
2022/03/19 07:10:15;;;;;;;41.33;18.50;;;7.50;99.90;;;;;;5029910;28;20178;-67
2022/03/19 07:12:49;;;;;;;42.37;18.60;;;7.60;99.90;;;;;;5030913;28;20181;-68
2022/03/19 07:15:16;;;;;;;41.73;17.60;;;7.60;99.90;;;;;;5030667;28;20173;-68
2022/03/19 07:17:43;;;;;;;37.40;16.63;;;7.70;99.90;;;;;;5030442;28;20181;-68
2022/03/19 07:20:13;;;;;;;37.73;17.47;;;7.90;99.90;;;;;;5030432;28;20185;-68
2022/03/19 07:23:03;;;;;;;32.83;16.80;;;7.80;99.90;;;;;;5013114;28;20189;-68
2022/03/19 07:25:34;;;;;;;31.10;16.43;;;7.80;99.90;;;;;;5030882;28;20236;-64
2022/03/19 07:28:11;;;;;;;36.97;16.77;;;7.90;99.90;;;;;;5030476;28;20201;-74
2022/03/19 07:30:38;;;;;;;35.07;17.00;;;7.90;99.90;;;;;;5030591;28;20182;-66
2022/03/19 07:33:04;;;;;;;35.97;16.30;;;8.00;99.90;;;;;;5030709;28;20252;-68
2022/03/19 07:35:29;;;;;;;33.80;16.40;;;8.00;99.90;;;;;;5030466;28;20194;-67
2022/03/19 07:37:57;;;;;;;34.10;17.30;;;8.10;99.90;;;;;;5030599;28;20645;-67
2022/03/19 07:43:10;;;;;;;33.97;16.47;;;8.20;99.90;;;;;;5025052;28;20196;-66
2022/03/19 07:45:38;;;;;;;38.97;16.23;;;8.30;99.90;;;;;;5030009;28;20178;-68
2022/03/19 07:48:05;;;;;;;32.03;16.37;;;8.30;99.90;;;;;;5030336;28;20196;-67
2022/03/19 07:50:30;;;;;;;26.87;15.20;;;8.40;99.90;;;;;;5030226;28;20719;-68
2022/03/19 07:52:56;;;;;;;29.60;15.57;;;8.50;99.90;;;;;;5031238;28;20265;-68
2022/03/19 07:55:23;;;;;;;34.47;15.53;;;8.60;99.90;;;;;;5034411;28;20229;-68
2022/03/19 07:57:50;;;;;;;27.57;14.47;;;8.60;99.90;;;;;;5018197;28;20201;-69
2022/03/19 08:00:16;;;;;;;23.50;12.73;;;8.70;99.90;;;;;;5033835;28;20193;-68
2022/03/19 08:02:42;;;;;;;25.53;14.30;;;8.70;99.90;;;;;;5038061;28;20186;-68
2022/03/19 08:05:09;;;;;;;28.93;14.53;;;8.70;99.90;;;;;;5033999;28;20235;-71
2022/03/19 08:07:35;;;;;;;28.90;15.30;;;8.80;99.90;;;;;;5033653;28;20319;-73
2022/03/19 08:10:01;;;;;;;33.57;15.10;;;8.90;99.90;;;;;;5034564;28;20205;-72
2022/03/19 08:12:27;;;;;;;27.37;15.10;;;9.00;99.90;;;;;;5038497;28;20645;-72
2022/03/19 08:14:53;;;;;;;30.47;14.57;;;9.10;99.90;;;;;;5033844;28;20174;-72
2022/03/19 08:17:18;;;;;;;31.40;14.97;;;9.20;99.90;;;;;;5034286;28;20641;-72
2022/03/19 08:19:45;;;;;;;29.83;15.10;;;9.30;99.90;;;;;;5022292;28;20194;-73
2022/03/19 08:22:11;;;;;;;27.13;14.10;;;9.40;99.90;;;;;;5014387;28;20186;-72
2022/03/19 08:24:37;;;;;;;29.17;14.57;;;9.50;99.90;;;;;;5034757;28;20185;-71
2022/03/19 08:27:03;;;;;;;33.43;13.90;;;9.50;99.90;;;;;;5036746;28;20204;-67
2022/03/19 08:29:29;;;;;;;25.80;14.10;;;9.60;99.90;;;;;;5033469;28;20296;-67
2022/03/19 08:31:56;;;;;;;29.83;14.27;;;9.70;99.90;;;;;;5033608;28;20692;-67
2022/03/19 08:34:22;;;;;;;30.27;14.63;;;9.90;99.90;;;;;;5034534;28;20184;-66
2022/03/19 08:36:48;;;;;;;39.10;14.23;;;10.10;99.90;;;;;;5039776;28;20169;-68
2022/03/19 08:41:59;;;;;;;30.37;13.83;;;10.40;99.90;;;;;;5032768;28;20180;-68
2022/03/19 08:44:25;;;;;;;25.53;13.17;;;10.90;99.90;;;;;;5033720;28;20607;-67
2022/03/19 08:46:52;;;;;;;28.13;12.57;;;13.40;99.90;;;;;;5033195;28;20209;-67
2022/03/19 08:49:17;;;;;;;27.30;12.90;;;15.80;99.90;;;;;;5034355;28;20236;-67
2022/03/19 08:51:43;;;;;;;24.98;11.93;;;17.40;99.90;;;;;;5034315;28;20174;-67
2022/03/19 08:54:11;;;;;;;23.08;11.77;;;18.20;99.90;;;;;;5044412;28;20166;-63
2022/03/19 08:56:38;;;;;;;22.55;12.18;;;17.60;99.90;;;;;;5032853;28;20265;-61
2022/03/19 08:59:04;;;;;;;24.80;12.27;;;15.00;99.90;;;;;;5035593;28;20182;-61
2022/03/19 09:01:31;;;;;;;20.02;12.75;;;13.90;99.90;;;;;;5033252;28;20303;-62
2022/03/19 09:03:57;;;;;;;20.45;11.90;;;16.10;99.90;;;;;;5032442;28;20185;-63
2022/03/19 09:06:23;;;;;;;20.85;11.80;;;18.20;99.90;;;;;;5033221;28;20174;-71
2022/03/19 09:08:49;;;;;;;19.30;11.55;;;19.10;99.90;;;;;;5032569;28;20579;-62
2022/03/19 09:11:18;;;;;;;22.70;11.93;;;20.20;99.90;;;;;;5032943;28;20181;-65
2022/03/19 09:13:48;;;;;;;18.00;11.82;;;19.10;99.90;;;;;;5032158;28;20323;-65
2022/03/19 09:16:15;;;;;;;16.95;11.48;;;20.20;99.90;;;;;;5032486;28;20256;-64
2022/03/19 09:18:41;;;;;;;25.50;11.90;;;20.20;99.90;;;;;;5031654;28;20184;-64
2022/03/19 09:21:07;;;;;;;19.48;11.60;;;20.00;99.90;;;;;;5032807;28;20540;-69
2022/03/19 09:23:32;;;;;;;21.33;11.65;;;20.10;99.90;;;;;;5032871;28;20240;-65
2022/03/19 09:25:58;;;;;;;20.70;11.85;;;21.40;99.90;;;;;;5032503;28;20704;-65
2022/03/19 09:28:24;;;;;;;24.35;12.70;;;21.20;99.90;;;;;;5031498;28;20213;-64
2022/03/19 09:30:51;;;;;;;24.52;12.07;;;20.90;99.90;;;;;;5032454;28;20967;-65
2022/03/19 09:33:17;;;;;;;17.55;11.98;;;22.10;99.90;;;;;;5032950;28;20193;-67
2022/03/19 09:35:45;;;;;;;19.92;12.15;;;21.20;99.90;;;;;;5014698;28;20170;-65
2022/03/19 09:38:12;;;;;;;20.02;12.30;;;21.10;99.90;;;;;;5032481;28;20692;-65
2022/03/19 09:40:38;;;;;;;18.75;12.55;;;22.40;99.90;;;;;;5032944;28;20213;-65
2022/03/19 09:43:04;;;;;;;24.15;13.27;;;21.80;99.90;;;;;;5032212;28;20193;-65
2022/03/19 09:45:30;;;;;;;20.70;12.27;;;22.60;99.90;;;;;;5040955;28;20203;-65
2022/03/19 09:47:56;;;;;;;24.25;13.32;;;23.20;99.90;;;;;;5034116;28;20202;-66
2022/03/19 09:50:23;;;;;;;23.30;14.52;;;23.60;99.90;;;;;;5032662;28;20220;-65
2022/03/19 09:52:54;;;;;;;18.45;13.63;;;22.10;99.90;;;;;;5034189;28;20696;-65
2022/03/19 09:55:26;;;;;;;20.45;14.80;;;21.50;99.90;;;;;;5031023;28;20434;-66
2022/03/19 09:57:53;;;;;;;21.55;14.77;;;22.50;99.90;;;;;;5031985;28;20178;-65
2022/03/19 10:00:22;;;;;;;22.60;14.98;;;23.10;99.90;;;;;;5032113;28;20640;-69
2022/03/19 10:03:01;;;;;;;21.35;14.25;;;23.50;99.90;;;;;;5031394;28;20257;-67
2022/03/19 10:08:35;;;;;;;21.45;14.43;;;23.60;99.90;;;;;;5032240;28;20220;-68
2022/03/19 10:11:02;;;;;;;20.83;13.93;;;21.30;99.90;;;;;;5030019;28;20177;-67
2022/03/19 10:13:28;;;;;;;21.23;14.43;;;21.70;99.90;;;;;;5032040;28;20540;-62
2022/03/19 10:15:54;;;;;;;22.15;13.05;;;21.80;99.90;;;;;;5030761;28;20185;-64
2022/03/19 10:18:27;;;;;;;27.10;14.32;;;22.80;99.90;;;;;;5031728;28;20660;-64
2022/03/19 10:20:53;;;;;;;23.50;13.57;;;19.80;99.90;;;;;;5013169;28;20299;-62
2022/03/19 10:23:37;;;;;;;20.15;13.68;;;21.40;99.90;;;;;;5030595;28;20169;-62
2022/03/19 10:26:03;;;;;;;19.13;13.73;;;22.40;99.90;;;;;;5031824;28;20229;-62
2022/03/19 10:28:33;;;;;;;20.48;13.65;;;21.60;99.90;;;;;;5031330;28;20205;-62
2022/03/19 10:31:06;;;;;;;22.63;12.57;;;21.50;99.90;;;;;;5031588;28;20173;-62
2022/03/19 10:33:32;;;;;;;26.17;12.95;;;21.10;99.90;;;;;;5031672;28;20609;-62
2022/03/19 10:36:11;;;;;;;21.05;12.45;;;20.90;99.90;;;;;;5031631;28;20532;-62
2022/03/19 10:38:46;;;;;;;26.45;12.02;;;21.10;99.90;;;;;;5031285;28;20439;-62
2022/03/19 10:41:18;;;;;;;18.98;11.65;;;20.80;99.90;;;;;;5005093;28;20227;-62
2022/03/19 10:44:19;;;;;;;21.38;10.88;;;21.80;99.90;;;;;;5031443;28;20174;-63
2022/03/19 10:46:53;;;;;;;18.05;10.63;;;22.40;99.90;;;;;;5034429;28;20243;-62
2022/03/19 10:49:26;;;;;;;22.70;11.23;;;22.90;99.90;;;;;;5031318;28;20209;-73
2022/03/19 10:55:14;;;;;;;22.45;10.45;;;22.90;99.90;;;;;;5030223;28;20224;-71
2022/03/19 10:57:41;;;;;;;20.30;9.55;;;22.90;99.90;;;;;;5030620;28;20219;-72
2022/03/19 11:00:08;;;;;;;19.25;9.90;;;22.80;99.90;;;;;;5030495;28;20288;-71
2022/03/19 11:02:35;;;;;;;20.05;8.77;;;22.40;99.90;;;;;;5030844;28;20277;-71
2022/03/19 11:05:01;;;;;;;20.98;9.13;;;23.50;99.90;;;;;;5031358;28;20174;-71
2022/03/19 11:07:32;;;;;;;19.40;7.88;;;21.90;99.90;;;;;;5030435;28;20178;-71
2022/03/19 11:09:59;;;;;;;16.73;7.75;;;22.20;99.90;;;;;;5031038;28;20193;-71
2022/03/19 11:12:32;;;;;;;12.63;7.13;;;22.20;99.90;;;;;;5030985;28;20209;-71
2022/03/19 11:14:59;;;;;;;22.17;7.10;;;21.00;99.90;;;;;;5031007;28;20181;-70
2022/03/19 11:17:33;;;;;;;24.85;7.18;;;22.90;99.90;;;;;;5030995;28;20317;-70
2022/03/19 11:20:01;;;;;;;19.30;7.07;;;20.90;99.90;;;;;;5030970;28;20181;-72
2022/03/19 11:22:29;;;;;;;22.55;6.88;;;20.90;99.90;;;;;;5030915;28;20547;-71
2022/03/19 11:25:16;;;;;;;26.50;6.55;;;20.30;99.90;;;;;;5030864;28;20182;-70
2022/03/19 11:27:46;;;;;;;18.17;5.93;;;21.40;99.90;;;;;;5030112;28;20683;-70
2022/03/19 11:30:23;;;;;;;12.52;6.40;;;20.80;99.90;;;;;;5030736;28;20174;-70
2022/03/19 11:33:07;;;;;;;15.65;5.40;;;20.20;99.90;;;;;;5030881;28;20641;-71
2022/03/19 11:35:55;;;;;;;21.23;5.85;;;19.80;99.90;;;;;;5030523;28;20178;-71
2022/03/19 11:38:22;;;;;;;20.70;6.25;;;20.00;99.90;;;;;;5030632;28;20185;-71
2022/03/19 11:40:54;;;;;;;16.25;5.97;;;18.80;99.90;;;;;;5029775;28;20538;-71
2022/03/19 11:43:35;;;;;;;13.32;6.18;;;19.30;99.90;;;;;;5032508;28;20178;-71
2022/03/19 11:46:05;;;;;;;23.33;5.70;;;20.00;99.90;;;;;;5030560;28;20597;-71
2022/03/19 11:49:11;;;;;;;20.90;5.88;;;20.10;99.90;;;;;;5030251;28;20240;-71
2022/03/19 11:51:42;;;;;;;9.27;5.35;;;18.90;99.90;;;;;;5030113;28;20173;-71
2022/03/19 11:54:16;;;;;;;15.95;5.78;;;19.50;99.90;;;;;;5030496;28;20256;-72
2022/03/19 11:56:41;;;;;;;15.85;5.55;;;20.00;99.90;;;;;;5030501;28;20204;-69
2022/03/19 11:59:44;;;;;;;19.55;5.45;;;18.90;99.90;;;;;;5030602;28;20640;-72
2022/03/19 12:02:12;;;;;;;17.63;5.18;;;20.70;99.90;;;;;;5030735;28;20165;-71
2022/03/19 12:04:48;;;;;;;25.45;6.20;;;19.80;99.90;;;;;;5030891;28;20177;-71
2022/03/19 12:07:54;;;;;;;21.88;6.70;;;21.50;99.90;;;;;;5030570;28;20556;-71
2022/03/19 12:10:21;;;;;;;16.65;6.05;;;21.70;99.00;;;;;;4969408;28;20195;-71
2022/03/19 12:12:48;;;;;;;18.98;6.05;;;21.00;98.40;;;;;;4969333;28;20225;-71
2022/03/19 12:15:45;;;;;;;13.82;6.13;;;20.90;98.90;;;;;;4999797;28;20182;-73
2022/03/19 12:18:27;;;;;;;18.65;5.72;;;21.60;98.20;;;;;;5033457;28;20310;-72
2022/03/19 12:20:57;;;;;;;22.20;6.53;;;20.80;97.80;;;;;;5030596;28;20182;-72
2022/03/19 12:23:24;;;;;;;16.08;6.15;;;19.50;98.90;;;;;;5030749;28;20223;-72
2022/03/19 12:26:02;;;;;;;15.30;6.00;;;20.00;99.10;;;;;;5030213;28;20176;-72
2022/03/19 12:28:29;;;;;;;18.02;6.47;;;18.80;99.90;;;;;;5029780;28;20557;-71
2022/03/19 12:31:02;;;;;;;21.40;6.88;;;20.50;99.60;;;;;;5030155;28;20227;-71
2022/03/19 12:33:32;;;;;;;21.95;6.95;;;20.20;99.20;;;;;;5030244;28;20173;-72
2022/03/19 12:36:09;;;;;;;29.85;7.05;;;21.10;98.40;;;;;;5028838;28;20177;-71
2022/03/19 12:38:35;;;;;;;22.25;6.75;;;22.00;99.00;;;;;;5030231;28;20252;-70
2022/03/19 12:43:58;;;;;;;16.25;6.65;;;20.90;98.20;;;;;;5033014;28;20197;-72
2022/03/19 12:46:36;;;;;;;20.52;6.70;;;20.50;97.50;;;;;;5015772;28;20170;-71
2022/03/19 12:49:10;;;;;;;16.33;7.40;;;20.60;96.40;;;;;;5033648;28;20213;-71
2022/03/19 12:51:43;;;;;;;23.65;6.22;;;20.70;95.60;;;;;;5033231;28;20176;-73
2022/03/19 12:54:28;;;;;;;22.98;6.13;;;20.90;96.20;;;;;;5033803;28;20564;-73
2022/03/19 12:56:57;;;;;;;17.15;6.40;;;20.30;96.10;;;;;;5033436;28;20249;-72
2022/03/19 12:59:25;;;;;;;17.02;5.90;;;21.30;96.30;;;;;;5033037;28;20162;-72
2022/03/19 13:01:52;;;;;;;17.60;6.30;;;20.70;95.60;;;;;;5015922;28;20182;-72
2022/03/19 13:04:20;;;;;;;21.08;5.75;;;20.10;96.20;;;;;;5033548;28;20181;-73
2022/03/19 13:06:47;;;;;;;19.30;6.20;;;20.50;94.90;;;;;;5034945;28;20517;-73
2022/03/19 13:09:12;;;;;;;14.60;6.38;;;20.20;95.00;;;;;;5032912;28;20714;-72